createdAt,value
2022-08-30T00:00:01.802Z,17.10
2022-08-30T00:02:32.014Z,17.10
2022-08-30T00:05:01.568Z,17.00
2022-08-30T00:07:28.684Z,17.10
2022-08-30T00:09:55.641Z,17.00
2022-08-30T00:12:22.658Z,17.00
2022-08-30T00:14:49.670Z,17.00
2022-08-30T00:17:16.591Z,17.00
2022-08-30T00:19:43.811Z,17.00
2022-08-30T00:22:10.652Z,17.00
2022-08-30T00:24:38.332Z,16.90
2022-08-30T00:27:05.505Z,16.90
2022-08-30T00:29:32.503Z,16.90
2022-08-30T00:31:59.388Z,16.90
2022-08-30T00:34:29.015Z,16.90
2022-08-30T00:36:56.051Z,16.80
2022-08-30T00:39:23.047Z,16.80
2022-08-30T00:41:50.023Z,16.80
2022-08-30T00:44:17.135Z,16.80
2022-08-30T00:46:44.164Z,16.70
2022-08-30T00:49:11.580Z,16.70
2022-08-30T00:51:39.559Z,16.80
2022-08-30T00:54:06.669Z,16.70
2022-08-30T00:56:33.791Z,16.70
2022-08-30T00:59:01.586Z,16.70
2022-08-30T01:01:28.629Z,16.80
2022-08-30T01:03:59.158Z,16.80
2022-08-30T01:06:26.141Z,16.80
2022-08-30T01:09:00.000Z,16.70
2022-08-30T01:11:26.893Z,16.70
2022-08-30T01:13:53.985Z,16.70
2022-08-30T01:16:21.169Z,16.60
2022-08-30T01:18:50.050Z,16.60
2022-08-30T01:21:34.868Z,16.60
2022-08-30T01:24:03.060Z,16.60
2022-08-30T01:26:30.197Z,16.50
2022-08-30T01:28:59.031Z,16.60
2022-08-30T01:31:26.998Z,16.60
2022-08-30T01:33:54.013Z,16.60
2022-08-30T01:36:21.018Z,16.50
2022-08-30T01:38:53.837Z,16.50
2022-08-30T01:41:23.073Z,16.50
2022-08-30T01:43:50.450Z,16.40
2022-08-30T01:46:18.462Z,16.40
2022-08-30T01:48:54.031Z,16.40
2022-08-30T01:51:22.785Z,16.40
2022-08-30T01:53:49.734Z,16.40
2022-08-30T01:56:16.676Z,16.40
2022-08-30T01:58:43.765Z,16.40
2022-08-30T02:01:15.069Z,16.40
2022-08-30T02:03:42.933Z,16.40
2022-08-30T02:06:11.818Z,16.40
2022-08-30T02:08:40.281Z,16.30
2022-08-30T02:11:07.394Z,16.30
2022-08-30T02:13:34.282Z,16.30
2022-08-30T02:16:01.233Z,16.40
2022-08-30T02:18:28.168Z,16.30
2022-08-30T02:20:55.205Z,16.40
2022-08-30T02:23:22.089Z,16.40
2022-08-30T02:25:49.023Z,16.40
2022-08-30T02:28:16.067Z,16.40
2022-08-30T02:30:46.300Z,16.40
2022-08-30T02:33:13.607Z,16.30
2022-08-30T02:35:40.542Z,16.30
2022-08-30T02:38:07.504Z,16.30
2022-08-30T02:40:34.574Z,16.40
2022-08-30T02:43:01.631Z,16.40
2022-08-30T02:45:28.749Z,16.30
2022-08-30T02:47:58.410Z,16.20
2022-08-30T02:50:25.426Z,16.20
2022-08-30T02:52:52.617Z,16.20
2022-08-30T02:55:21.317Z,16.20
2022-08-30T02:57:48.314Z,16.20
2022-08-30T03:00:17.321Z,16.20
2022-08-30T03:02:44.259Z,16.20
2022-08-30T03:05:13.224Z,16.10
2022-08-30T03:07:40.970Z,16.20
2022-08-30T03:10:08.171Z,16.20
2022-08-30T03:12:35.079Z,16.20
2022-08-30T03:15:02.086Z,16.20
2022-08-30T03:17:30.385Z,16.20
2022-08-30T03:19:58.936Z,16.10
2022-08-30T03:22:25.985Z,16.10
2022-08-30T03:24:52.905Z,16.10
2022-08-30T03:27:19.837Z,16.10
2022-08-30T03:29:46.727Z,16.00
2022-08-30T03:32:13.792Z,16.00
2022-08-30T03:34:41.007Z,16.00
2022-08-30T03:37:08.025Z,15.90
2022-08-30T03:39:34.953Z,16.00
2022-08-30T03:42:01.921Z,16.00
2022-08-30T03:44:29.975Z,15.90
2022-08-30T03:46:56.865Z,15.90
2022-08-30T03:49:24.494Z,15.80
2022-08-30T03:51:51.895Z,15.80
2022-08-30T03:54:18.810Z,15.70
2022-08-30T03:56:45.846Z,15.80
2022-08-30T03:59:12.745Z,15.70
2022-08-30T04:01:39.686Z,15.70
2022-08-30T04:04:06.563Z,15.70
2022-08-30T04:06:33.462Z,15.70
2022-08-30T04:09:00.483Z,15.70
2022-08-30T04:11:27.690Z,15.70
2022-08-30T04:13:56.165Z,15.60
2022-08-30T04:16:24.065Z,15.60
2022-08-30T04:18:51.048Z,15.60
2022-08-30T04:21:18.178Z,15.60
2022-08-30T04:23:45.174Z,15.60
2022-08-30T04:26:12.148Z,15.60
2022-08-30T04:28:39.018Z,15.60
2022-08-30T04:31:11.892Z,15.60
2022-08-30T04:33:39.426Z,15.50
2022-08-30T04:36:06.939Z,15.50
2022-08-30T04:38:34.185Z,15.50
2022-08-30T04:41:01.071Z,15.50
2022-08-30T04:43:28.067Z,15.40
2022-08-30T04:45:55.214Z,15.40
2022-08-30T04:48:22.283Z,15.40
2022-08-30T04:50:49.262Z,15.40
2022-08-30T04:53:16.352Z,15.50
2022-08-30T04:55:43.767Z,15.50
2022-08-30T04:58:11.429Z,15.50
2022-08-30T05:00:38.485Z,15.50
2022-08-30T05:03:05.480Z,15.50
2022-08-30T05:05:41.794Z,15.50
2022-08-30T05:08:13.298Z,15.50
2022-08-30T05:10:45.501Z,15.60
2022-08-30T05:13:12.718Z,15.60
2022-08-30T05:15:40.326Z,15.60
2022-08-30T05:18:08.249Z,15.60
2022-08-30T05:20:40.329Z,15.60
2022-08-30T05:23:07.320Z,15.60
2022-08-30T05:25:37.701Z,15.70
2022-08-30T05:28:04.645Z,15.80
2022-08-30T05:30:32.961Z,15.80
2022-08-30T05:32:59.973Z,15.80
2022-08-30T05:35:26.950Z,15.80
2022-08-30T05:37:54.466Z,15.80
2022-08-30T05:40:21.522Z,15.90
2022-08-30T05:42:48.593Z,15.90
2022-08-30T05:45:15.613Z,15.90
2022-08-30T05:47:42.588Z,15.90
2022-08-30T05:50:09.815Z,16.00
2022-08-30T05:52:37.867Z,16.00
2022-08-30T05:55:05.782Z,15.90
2022-08-30T05:57:34.133Z,15.90
2022-08-30T06:00:03.994Z,16.00
2022-08-30T06:02:39.324Z,16.00
2022-08-30T06:05:06.544Z,16.00
2022-08-30T06:07:33.618Z,16.00
2022-08-30T06:10:00.564Z,16.00
2022-08-30T06:12:27.513Z,16.00
2022-08-30T06:14:54.433Z,16.10
2022-08-30T06:17:21.656Z,16.20
2022-08-30T06:19:48.566Z,16.10
2022-08-30T06:22:15.537Z,16.20
2022-08-30T06:24:56.889Z,16.20
2022-08-30T06:27:24.746Z,16.20
2022-08-30T06:29:52.468Z,16.20
2022-08-30T06:32:19.397Z,16.20
2022-08-30T06:34:46.355Z,16.20
2022-08-30T06:37:29.255Z,16.30
2022-08-30T06:39:57.745Z,16.30
2022-08-30T06:42:30.630Z,16.30
2022-08-30T06:45:10.496Z,16.30
2022-08-30T06:47:39.497Z,16.30
2022-08-30T06:50:07.002Z,16.40
2022-08-30T06:52:38.617Z,16.40
2022-08-30T06:55:06.102Z,16.40
2022-08-30T06:57:33.011Z,16.50
2022-08-30T06:59:59.897Z,16.50
2022-08-30T07:02:29.945Z,16.50
2022-08-30T07:04:59.545Z,16.50
2022-08-30T07:07:26.483Z,16.60
2022-08-30T07:09:53.933Z,16.60
2022-08-30T07:12:20.834Z,16.60
2022-08-30T07:14:47.898Z,16.70
2022-08-30T07:17:34.865Z,16.70
2022-08-30T07:20:04.038Z,16.70
2022-08-30T07:22:32.344Z,16.70
2022-08-30T07:24:59.447Z,16.80
2022-08-30T07:27:26.377Z,16.80
2022-08-30T07:29:53.260Z,16.90
2022-08-30T07:32:20.174Z,16.90
2022-08-30T07:34:47.204Z,17.00
2022-08-30T07:37:18.802Z,17.10
2022-08-30T07:39:48.019Z,17.10
2022-08-30T07:42:15.942Z,17.20
2022-08-30T07:44:43.737Z,17.20
2022-08-30T07:47:11.185Z,17.20
2022-08-30T07:49:41.596Z,17.20
2022-08-30T07:52:08.861Z,17.30
2022-08-30T07:54:35.868Z,17.30
2022-08-30T07:57:03.120Z,17.30
2022-08-30T08:00:07.662Z,17.40
2022-08-30T08:02:40.661Z,17.40
2022-08-30T08:05:09.658Z,17.40
2022-08-30T08:07:37.180Z,17.40
2022-08-30T08:10:04.503Z,17.40
2022-08-30T08:12:31.453Z,17.50
2022-08-30T08:14:58.365Z,17.60
2022-08-30T08:17:25.215Z,17.60
2022-08-30T08:19:52.118Z,17.60
2022-08-30T08:22:21.326Z,17.60
2022-08-30T08:24:49.089Z,17.60
2022-08-30T08:27:16.342Z,17.70
2022-08-30T08:29:43.193Z,17.80
2022-08-30T08:32:10.066Z,17.90
2022-08-30T08:34:39.536Z,17.90
2022-08-30T08:37:06.527Z,18.00
2022-08-30T08:39:35.953Z,18.10
2022-08-30T08:42:37.104Z,18.10
2022-08-30T08:45:11.271Z,18.20
2022-08-30T08:47:54.305Z,18.10
2022-08-30T08:50:22.516Z,18.20
2022-08-30T08:53:24.912Z,18.20
2022-08-30T08:55:52.701Z,18.30
2022-08-30T08:58:23.844Z,18.30
2022-08-30T09:00:51.455Z,18.30
2022-08-30T09:03:21.120Z,18.30
2022-08-30T09:05:48.366Z,18.30
2022-08-30T09:08:16.990Z,18.40
2022-08-30T09:10:58.405Z,18.40
2022-08-30T09:13:25.538Z,18.50
2022-08-30T09:15:55.459Z,18.50
2022-08-30T09:18:45.737Z,18.60
2022-08-30T09:21:13.742Z,18.70
2022-08-30T09:23:49.852Z,18.70
2022-08-30T09:26:30.031Z,18.90
2022-08-30T09:28:57.156Z,19.00
2022-08-30T09:31:31.622Z,19.10
2022-08-30T09:34:06.117Z,19.10
2022-08-30T09:36:49.635Z,19.20
2022-08-30T09:39:27.485Z,19.30
2022-08-30T09:41:55.208Z,19.40
2022-08-30T09:44:31.722Z,19.40
2022-08-30T09:46:59.698Z,19.60
2022-08-30T09:49:40.602Z,19.60
2022-08-30T09:52:18.539Z,19.50
2022-08-30T09:55:18.856Z,19.60
2022-08-30T09:57:59.155Z,19.70
2022-08-30T10:00:31.753Z,19.70
2022-08-30T10:03:36.160Z,19.60
2022-08-30T10:06:23.635Z,19.70
2022-08-30T10:09:17.138Z,19.70
2022-08-30T10:11:56.323Z,19.80
2022-08-30T10:14:32.624Z,19.80
2022-08-30T10:17:20.742Z,19.80
2022-08-30T10:20:06.041Z,19.80
2022-08-30T10:22:53.590Z,19.80
2022-08-30T10:25:33.350Z,19.90
2022-08-30T10:28:04.638Z,20.00
2022-08-30T10:34:05.840Z,20.20
2022-08-30T10:36:37.668Z,20.30
2022-08-30T10:39:16.470Z,20.40
2022-08-30T10:41:46.301Z,20.40
2022-08-30T10:44:31.761Z,20.40
2022-08-30T10:47:12.586Z,20.40
2022-08-30T10:49:49.650Z,20.30
2022-08-30T10:52:34.144Z,20.40
2022-08-30T10:55:22.112Z,20.50
2022-08-30T10:57:49.538Z,20.60
2022-08-30T11:00:49.856Z,20.70
2022-08-30T11:03:25.702Z,20.80
2022-08-30T11:06:24.315Z,20.90
2022-08-30T11:09:12.841Z,21.00
2022-08-30T11:12:09.927Z,21.10
2022-08-30T11:14:43.271Z,21.00
2022-08-30T11:18:01.284Z,21.00
2022-08-30T11:20:42.359Z,21.00
2022-08-30T11:23:34.480Z,21.00
2022-08-30T11:26:12.167Z,21.20
2022-08-30T11:29:01.630Z,21.40
2022-08-30T11:31:37.281Z,21.60
2022-08-30T11:34:21.139Z,21.70
2022-08-30T11:37:00.823Z,21.90
2022-08-30T11:39:46.519Z,21.90
2022-08-30T11:42:33.029Z,21.90
2022-08-30T11:45:26.717Z,22.00
2022-08-30T11:48:05.860Z,22.10
2022-08-30T11:50:59.485Z,22.10
2022-08-30T11:53:42.856Z,22.10
2022-08-30T11:56:18.558Z,22.10
2022-08-30T11:58:50.979Z,22.20
2022-08-30T12:01:51.127Z,22.30
2022-08-30T12:04:17.771Z,22.40
2022-08-30T12:06:56.839Z,22.50
2022-08-30T12:09:23.779Z,22.60
2022-08-30T12:12:26.504Z,22.50
2022-08-30T12:14:57.760Z,22.40
2022-08-30T12:17:46.436Z,22.30
2022-08-30T12:20:23.136Z,22.30
2022-08-30T12:22:51.210Z,22.20
2022-08-30T12:25:32.191Z,22.20
2022-08-30T12:28:31.318Z,22.10
2022-08-30T12:31:06.583Z,22.10
2022-08-30T12:33:41.301Z,22.20
2022-08-30T12:36:13.633Z,22.50
2022-08-30T12:38:41.006Z,22.50
2022-08-30T12:41:07.992Z,22.50
2022-08-30T12:43:40.838Z,22.50
2022-08-30T12:46:11.522Z,22.50
2022-08-30T12:48:39.513Z,22.40
2022-08-30T12:51:07.185Z,22.30
2022-08-30T12:53:39.389Z,22.30
2022-08-30T12:56:11.646Z,22.20
2022-08-30T12:58:49.774Z,22.20
2022-08-30T13:01:18.580Z,22.30
2022-08-30T13:04:33.911Z,22.30
2022-08-30T13:07:01.742Z,22.30
2022-08-30T13:09:33.904Z,22.30
2022-08-30T13:12:24.605Z,22.30
2022-08-30T13:14:55.425Z,22.20
2022-08-30T13:17:23.457Z,22.30
2022-08-30T13:20:07.847Z,22.20
2022-08-30T13:22:37.033Z,22.20
2022-08-30T13:25:06.076Z,22.30
2022-08-30T13:27:36.726Z,22.40
2022-08-30T13:30:08.583Z,22.30
2022-08-30T13:32:40.717Z,22.30
2022-08-30T13:35:08.618Z,22.30
2022-08-30T13:37:51.949Z,22.30
2022-08-30T13:40:20.025Z,22.40
2022-08-30T13:42:47.249Z,22.50
2022-08-30T13:48:01.945Z,22.70
2022-08-30T13:50:30.560Z,22.70
2022-08-30T13:52:57.881Z,22.70
2022-08-30T13:55:25.050Z,22.70
2022-08-30T13:57:56.267Z,22.70
2022-08-30T14:00:25.118Z,22.60
2022-08-30T14:02:59.880Z,22.60
2022-08-30T14:05:48.860Z,22.60
2022-08-30T14:11:11.758Z,22.30
2022-08-30T14:14:14.504Z,22.30
2022-08-30T14:16:27.620Z,22.30
2022-08-30T14:18:55.377Z,22.30
2022-08-30T14:21:24.571Z,22.30
2022-08-30T14:23:56.518Z,22.40
2022-08-30T14:26:24.418Z,22.50
2022-08-30T14:28:53.415Z,22.40
2022-08-30T14:31:20.717Z,22.50
2022-08-30T14:33:48.463Z,22.60
2022-08-30T14:36:16.102Z,22.80
2022-08-30T14:38:43.642Z,22.90
2022-08-30T14:41:10.963Z,23.00
2022-08-30T14:43:40.644Z,23.00
2022-08-30T14:46:08.098Z,23.00
2022-08-30T14:48:36.651Z,23.00
2022-08-30T14:51:10.451Z,23.00
2022-08-30T14:53:38.214Z,22.80
2022-08-30T14:56:15.957Z,22.80
2022-08-30T14:58:43.267Z,22.70
2022-08-30T15:01:12.694Z,22.80
2022-08-30T15:03:40.941Z,22.80
2022-08-30T15:06:09.082Z,22.60
2022-08-30T15:08:36.496Z,22.40
2022-08-30T15:11:13.646Z,22.40
2022-08-30T15:13:40.757Z,22.30
2022-08-30T15:16:11.507Z,22.30
2022-08-30T15:18:38.530Z,22.30
2022-08-30T15:21:05.547Z,22.30
2022-08-30T15:23:33.249Z,22.30
2022-08-30T15:26:00.373Z,22.20
2022-08-30T15:28:27.314Z,22.30
2022-08-30T15:30:55.492Z,22.30
2022-08-30T15:33:23.549Z,22.40
2022-08-30T15:35:52.151Z,22.50
2022-08-30T15:38:19.609Z,22.50
2022-08-30T15:40:49.879Z,22.50
2022-08-30T15:43:17.313Z,22.50
2022-08-30T15:45:44.911Z,22.50
2022-08-30T15:48:12.498Z,22.50
2022-08-30T15:50:39.744Z,22.40
2022-08-30T15:53:07.532Z,22.40
2022-08-30T15:55:34.860Z,22.30
2022-08-30T15:58:02.128Z,22.30
2022-08-30T16:00:29.480Z,22.40
2022-08-30T16:02:57.336Z,22.40
2022-08-30T16:05:24.379Z,22.40
2022-08-30T16:07:52.466Z,22.40
2022-08-30T16:10:19.638Z,22.40
2022-08-30T16:12:46.702Z,22.40
2022-08-30T16:15:13.935Z,22.30
2022-08-30T16:17:41.247Z,22.40
2022-08-30T16:20:09.006Z,22.40
2022-08-30T16:22:37.111Z,22.30
2022-08-30T16:25:04.786Z,22.30
2022-08-30T16:27:33.931Z,22.30
2022-08-30T16:30:01.620Z,22.30
2022-08-30T16:32:28.552Z,22.30
2022-08-30T16:34:55.794Z,22.30
2022-08-30T16:37:22.680Z,22.30
2022-08-30T16:39:49.772Z,22.20
2022-08-30T16:42:21.008Z,22.20
2022-08-30T16:44:49.751Z,22.20
2022-08-30T16:47:17.134Z,22.20
2022-08-30T16:49:44.433Z,22.20
2022-08-30T16:52:11.630Z,22.10
2022-08-30T16:54:38.667Z,22.10
2022-08-30T16:57:06.652Z,22.10
2022-08-30T16:59:33.641Z,22.10
2022-08-30T17:02:01.128Z,22.10
2022-08-30T17:04:28.153Z,22.10
2022-08-30T17:06:55.198Z,22.10
2022-08-30T17:09:22.359Z,22.00
2022-08-30T17:11:49.434Z,22.00
2022-08-30T17:14:22.938Z,21.90
2022-08-30T17:16:57.815Z,21.90
2022-08-30T17:19:26.853Z,21.80
2022-08-30T17:21:56.347Z,21.80
2022-08-30T17:24:25.004Z,21.80
2022-08-30T17:26:52.481Z,21.80
2022-08-30T17:29:19.841Z,21.70
2022-08-30T17:31:51.063Z,21.70
2022-08-30T17:34:21.093Z,21.70
2022-08-30T17:36:49.614Z,21.70
2022-08-30T17:39:16.637Z,21.60
2022-08-30T17:41:49.989Z,21.60
2022-08-30T17:44:19.000Z,21.70
2022-08-30T17:46:45.919Z,21.60
2022-08-30T17:49:13.097Z,21.60
2022-08-30T17:51:42.427Z,21.50
2022-08-30T17:54:11.940Z,21.50
2022-08-30T17:56:39.934Z,21.50
2022-08-30T17:59:08.026Z,21.40
2022-08-30T18:01:36.408Z,21.30
2022-08-30T18:04:06.034Z,21.30
2022-08-30T18:06:34.291Z,21.30
2022-08-30T18:09:02.309Z,21.30
2022-08-30T18:11:29.204Z,21.20
2022-08-30T18:13:56.160Z,21.20
2022-08-30T18:16:26.472Z,21.20
2022-08-30T18:18:57.169Z,21.20
2022-08-30T18:21:25.302Z,21.10
2022-08-30T18:23:52.619Z,21.00
2022-08-30T18:26:19.609Z,21.00
2022-08-30T18:28:51.277Z,21.00
2022-08-30T18:31:18.366Z,20.90
2022-08-30T18:33:45.525Z,20.90
2022-08-30T18:36:12.598Z,20.90
2022-08-30T18:38:39.816Z,20.90
2022-08-30T18:41:10.708Z,20.80
2022-08-30T18:43:37.981Z,20.80
2022-08-30T18:46:06.429Z,20.80
2022-08-30T18:48:33.633Z,20.70
2022-08-30T18:51:02.171Z,20.70
2022-08-30T18:53:29.477Z,20.70
2022-08-30T18:55:56.785Z,20.70
2022-08-30T18:58:23.629Z,20.60
2022-08-30T19:00:50.832Z,20.50
2022-08-30T19:03:18.914Z,20.50
2022-08-30T19:05:46.367Z,20.40
2022-08-30T19:08:13.708Z,20.40
2022-08-30T19:10:40.887Z,20.30
2022-08-30T19:13:07.803Z,20.30
2022-08-30T19:15:35.141Z,20.30
2022-08-30T19:18:02.347Z,20.30
2022-08-30T19:20:44.251Z,20.30
2022-08-30T19:23:11.238Z,20.30
2022-08-30T19:25:40.340Z,20.20
2022-08-30T19:28:07.890Z,20.20
2022-08-30T19:30:35.640Z,20.20
2022-08-30T19:33:02.927Z,20.20
2022-08-30T19:35:30.426Z,20.20
2022-08-30T19:37:57.721Z,20.10
2022-08-30T19:40:25.647Z,20.00
2022-08-30T19:42:52.830Z,20.00
2022-08-30T19:45:21.729Z,20.00
2022-08-30T19:47:48.908Z,19.90
2022-08-30T19:50:16.009Z,19.90
2022-08-30T19:52:43.048Z,19.80
2022-08-30T19:55:10.439Z,19.80
2022-08-30T19:57:40.123Z,19.80
2022-08-30T20:00:11.858Z,19.70
2022-08-30T20:02:43.837Z,19.70
2022-08-30T20:05:11.292Z,19.60
2022-08-30T20:07:39.685Z,19.60
2022-08-30T20:10:09.071Z,19.60
2022-08-30T20:12:36.249Z,19.50
2022-08-30T20:15:09.283Z,19.40
2022-08-30T20:18:02.140Z,19.40
2022-08-30T20:20:26.186Z,19.30
2022-08-30T20:22:54.756Z,19.40
2022-08-30T20:25:22.159Z,19.20
2022-08-30T20:27:49.279Z,19.20
2022-08-30T20:30:19.925Z,19.10
2022-08-30T20:32:47.018Z,19.10
2022-08-30T20:35:17.536Z,19.00
2022-08-30T20:37:44.668Z,19.00
2022-08-30T20:40:15.560Z,19.10
2022-08-30T20:42:45.512Z,19.00
2022-08-30T20:45:14.251Z,18.90
2022-08-30T20:47:41.698Z,18.90
2022-08-30T20:50:13.890Z,18.90
2022-08-30T20:52:41.075Z,18.90
2022-08-30T20:55:08.717Z,18.90
2022-08-30T20:57:35.618Z,18.90
2022-08-30T21:00:05.268Z,18.80
2022-08-30T21:02:33.603Z,18.90
2022-08-30T21:05:00.855Z,18.90
2022-08-30T21:07:27.749Z,18.80
2022-08-30T21:09:56.715Z,18.80
2022-08-30T21:12:24.053Z,18.80
2022-08-30T21:14:51.418Z,18.70
2022-08-30T21:17:18.762Z,18.70
2022-08-30T21:19:46.459Z,18.80
2022-08-30T21:22:14.054Z,18.70
2022-08-30T21:24:41.134Z,18.70
2022-08-30T21:27:11.189Z,18.60
2022-08-30T21:29:39.463Z,18.70
2022-08-30T21:32:06.596Z,18.60
2022-08-30T21:34:53.524Z,18.50
2022-08-30T21:37:20.485Z,18.40
2022-08-30T21:39:47.401Z,18.40
2022-08-30T21:42:14.451Z,18.30
2022-08-30T21:44:41.303Z,18.20
2022-08-30T21:47:08.244Z,18.20
2022-08-30T21:49:35.158Z,18.20
2022-08-30T21:52:02.182Z,18.20
2022-08-30T21:54:31.466Z,18.10
2022-08-30T21:57:00.613Z,18.10
2022-08-30T21:59:28.465Z,18.10
2022-08-30T22:01:55.306Z,18.10
2022-08-30T22:04:26.247Z,18.10
2022-08-30T22:06:53.743Z,18.10
2022-08-30T22:09:24.258Z,18.10
2022-08-30T22:11:51.237Z,18.10
2022-08-30T22:14:19.290Z,18.10
2022-08-30T22:16:46.308Z,18.10
2022-08-30T22:19:13.462Z,18.10
2022-08-30T22:21:41.838Z,18.10
2022-08-30T22:24:09.601Z,18.10
2022-08-30T22:26:36.914Z,18.00
2022-08-30T22:29:05.617Z,18.00
2022-08-30T22:31:32.536Z,18.00
2022-08-30T22:33:59.557Z,17.90
2022-08-30T22:36:32.253Z,17.80
2022-08-30T22:39:00.109Z,17.80
2022-08-30T22:41:31.403Z,17.80
2022-08-30T22:43:58.641Z,17.80
2022-08-30T22:46:29.640Z,17.80
2022-08-30T22:49:02.282Z,17.80
2022-08-30T22:51:29.317Z,17.70
2022-08-30T22:53:56.303Z,17.70
2022-08-30T22:56:25.029Z,17.70
2022-08-30T22:58:52.188Z,17.70
2022-08-30T23:01:30.367Z,17.70
2022-08-30T23:03:57.735Z,17.70
2022-08-30T23:06:24.746Z,17.70
2022-08-30T23:08:51.697Z,17.70
2022-08-30T23:11:18.767Z,17.70
2022-08-30T23:13:45.796Z,17.70
2022-08-30T23:16:13.013Z,17.70
2022-08-30T23:18:41.242Z,17.70
2022-08-30T23:21:13.246Z,17.60
2022-08-30T23:23:58.990Z,17.60
2022-08-30T23:26:44.438Z,17.50
2022-08-30T23:29:30.282Z,17.50
2022-08-30T23:32:15.693Z,17.50
2022-08-30T23:35:01.230Z,17.50
2022-08-30T23:37:46.608Z,17.50
2022-08-30T23:40:34.865Z,17.40
2022-08-30T23:43:20.632Z,17.40
2022-08-30T23:46:06.083Z,17.40
2022-08-30T23:48:52.166Z,17.30
2022-08-30T23:51:37.818Z,17.30
2022-08-30T23:54:23.946Z,17.30
2022-08-30T23:57:09.506Z,17.20
2022-08-30T23:59:55.077Z,17.20
